createdAt,value
2022-10-17T00:02:11.015Z,86.93
2022-10-17T00:04:40.794Z,86.74
2022-10-17T00:07:07.350Z,86.69
2022-10-17T00:09:33.969Z,86.85
2022-10-17T00:12:00.652Z,86.57
2022-10-17T00:14:27.234Z,86.07
2022-10-17T00:16:53.797Z,86.64
2022-10-17T00:19:20.442Z,87.32
2022-10-17T00:21:50.809Z,87.22
2022-10-17T00:24:17.401Z,86.72
2022-10-17T00:26:44.676Z,87.02
2022-10-17T00:29:11.300Z,86.72
2022-10-17T00:31:37.910Z,86.41
2022-10-17T00:34:04.667Z,86.95
2022-10-17T00:36:31.429Z,87.01
2022-10-17T00:38:59.539Z,86.79
2022-10-17T00:41:32.338Z,86.64
2022-10-17T00:44:13.033Z,87.42
2022-10-17T00:46:40.722Z,87.81
2022-10-17T00:49:10.025Z,87.57
2022-10-17T00:51:57.695Z,87.69
2022-10-17T00:54:28.908Z,88.08
2022-10-17T00:56:55.791Z,87.46
2022-10-17T00:59:23.554Z,87.67
2022-10-17T01:02:04.780Z,87.21
2022-10-17T01:04:32.495Z,87.75
2022-10-17T01:06:59.117Z,87.40
2022-10-17T01:09:27.331Z,87.42
2022-10-17T01:12:05.414Z,87.08
2022-10-17T01:14:37.700Z,87.33
2022-10-17T01:17:41.704Z,87.62
2022-10-17T01:20:20.300Z,87.26
2022-10-17T01:23:00.016Z,87.62
2022-10-17T01:25:47.271Z,86.98
2022-10-17T01:28:50.358Z,86.31
2022-10-17T01:31:26.260Z,86.66
2022-10-17T01:34:17.798Z,86.26
2022-10-17T01:37:02.529Z,86.65
2022-10-17T01:39:47.922Z,86.69
2022-10-17T01:42:33.487Z,86.28
2022-10-17T01:45:09.116Z,86.42
2022-10-17T01:47:35.988Z,85.88
2022-10-17T01:50:21.561Z,86.60
2022-10-17T01:53:02.812Z,85.95
2022-10-17T01:55:34.953Z,85.67
2022-10-17T01:58:16.716Z,86.11
2022-10-17T02:00:45.585Z,85.76
2022-10-17T02:03:16.695Z,86.03
2022-10-17T02:05:44.844Z,85.45
2022-10-17T02:08:13.830Z,85.50
2022-10-17T02:10:43.015Z,84.78
2022-10-17T02:13:23.410Z,85.04
2022-10-17T02:16:01.723Z,84.30
2022-10-17T02:18:46.503Z,84.56
2022-10-17T02:21:24.326Z,84.97
2022-10-17T02:24:20.562Z,84.90
2022-10-17T02:27:10.344Z,85.04
2022-10-17T02:29:45.749Z,85.73
2022-10-17T02:34:50.899Z,86.47
2022-10-17T02:37:23.039Z,86.13
2022-10-17T02:39:50.920Z,86.18
2022-10-17T02:42:18.888Z,86.12
2022-10-17T02:44:47.088Z,86.80
2022-10-17T02:47:45.663Z,86.60
2022-10-17T02:50:12.373Z,86.37
2022-10-17T02:52:59.205Z,86.57
2022-10-17T02:55:36.170Z,86.93
2022-10-17T02:58:19.065Z,87.63
2022-10-17T03:00:46.159Z,87.37
2022-10-17T03:03:25.901Z,87.39
2022-10-17T03:05:53.253Z,88.13
2022-10-17T03:08:20.724Z,87.52
2022-10-17T03:10:48.911Z,87.66
2022-10-17T03:13:16.648Z,87.51
2022-10-17T03:15:43.494Z,87.45
2022-10-17T03:18:10.142Z,88.17
2022-10-17T03:20:36.720Z,87.62
2022-10-17T03:23:03.503Z,87.84
2022-10-17T03:25:30.236Z,88.15
2022-10-17T03:27:59.447Z,87.66
2022-10-17T03:30:26.053Z,87.92
2022-10-17T03:32:52.988Z,88.02
2022-10-17T03:35:19.680Z,88.46
2022-10-17T03:37:46.260Z,88.96
2022-10-17T03:40:16.652Z,87.77
2022-10-17T03:42:43.266Z,88.08
2022-10-17T03:45:10.112Z,88.30
2022-10-17T03:47:36.783Z,87.50
2022-10-17T03:50:04.505Z,88.74
2022-10-17T03:52:31.157Z,88.98
2022-10-17T03:55:02.012Z,88.86
2022-10-17T03:57:28.814Z,88.74
2022-10-17T03:59:55.646Z,88.87
2022-10-17T04:02:22.293Z,88.47
2022-10-17T04:04:48.893Z,88.91
2022-10-17T04:07:15.523Z,88.94
2022-10-17T04:09:43.663Z,88.99
2022-10-17T17:05:39.057Z,99.06
2022-10-17T17:08:08.021Z,100.00
2022-10-17T17:10:38.292Z,100.00
2022-10-17T17:13:04.915Z,100.00
2022-10-17T17:15:31.490Z,100.00
2022-10-17T17:18:00.474Z,100.00
2022-10-17T17:20:30.828Z,99.90
2022-10-17T17:22:57.426Z,99.23
2022-10-17T17:25:24.133Z,98.91
2022-10-17T17:27:50.780Z,98.71
2022-10-17T17:30:17.504Z,98.31
2022-10-17T17:32:45.171Z,97.88
2022-10-17T17:35:11.814Z,98.00
2022-10-17T17:37:38.368Z,97.82
2022-10-17T17:40:06.231Z,98.01
2022-10-17T17:42:32.876Z,97.30
2022-10-17T17:44:59.498Z,97.27
2022-10-17T17:47:29.020Z,96.69
2022-10-17T17:49:56.108Z,96.54
2022-10-17T17:52:22.704Z,96.57
2022-10-17T17:54:49.331Z,96.24
2022-10-17T17:57:17.448Z,95.96
2022-10-17T17:59:44.047Z,95.79
2022-10-17T18:02:11.403Z,95.58
2022-10-17T18:04:38.866Z,95.79
2022-10-17T18:07:06.694Z,95.66
2022-10-17T18:09:33.352Z,95.38
2022-10-17T18:12:00.730Z,95.24
2022-10-17T18:14:27.464Z,94.87
2022-10-17T18:16:54.039Z,94.58
2022-10-17T18:19:23.659Z,93.92
2022-10-17T18:21:50.249Z,94.08
2022-10-17T18:24:16.847Z,93.92
2022-10-17T18:26:43.449Z,94.16
2022-10-17T18:29:12.671Z,93.52
2022-10-17T18:31:39.325Z,93.07
2022-10-17T18:34:06.040Z,93.19
2022-10-17T18:36:34.053Z,92.85
2022-10-17T18:39:01.963Z,92.35
2022-10-17T18:41:28.873Z,92.99
2022-10-17T18:43:56.458Z,92.49
2022-10-17T18:46:25.350Z,92.09
2022-10-17T18:48:53.233Z,92.22
2022-10-17T18:51:22.258Z,91.60
2022-10-17T18:53:51.321Z,91.50
2022-10-17T18:56:19.248Z,91.63
2022-10-17T18:58:46.208Z,91.45
2022-10-17T19:01:18.597Z,91.18
2022-10-17T19:03:47.238Z,91.18
2022-10-17T19:06:15.944Z,91.02
2022-10-17T19:08:43.398Z,90.60
2022-10-17T19:11:22.912Z,90.27
2022-10-17T19:13:50.263Z,90.44
2022-10-17T19:16:24.975Z,90.01
2022-10-17T19:19:11.612Z,89.64
2022-10-17T19:21:39.145Z,89.36
2022-10-17T19:24:08.185Z,89.73
2022-10-17T19:26:36.607Z,90.06
2022-10-17T19:29:05.329Z,89.74
2022-10-17T19:31:33.727Z,89.34
2022-10-17T19:34:00.634Z,89.08
2022-10-17T19:36:32.449Z,89.07
2022-10-17T19:39:05.364Z,89.36
2022-10-17T19:41:33.047Z,89.38
2022-10-17T19:44:00.737Z,89.17
2022-10-17T19:46:29.216Z,88.97
2022-10-17T19:48:56.330Z,88.86
2022-10-17T19:51:24.636Z,88.43
2022-10-17T19:53:52.457Z,88.52
2022-10-17T19:56:24.468Z,88.47
2022-10-17T19:58:51.693Z,88.15
2022-10-17T20:01:28.543Z,88.47
2022-10-17T20:03:55.847Z,88.57
2022-10-17T20:06:22.576Z,87.97
2022-10-17T20:08:50.097Z,88.49
2022-10-17T20:11:19.074Z,89.05
2022-10-17T20:13:46.053Z,88.30
2022-10-17T20:16:18.359Z,88.28
2022-10-17T20:18:45.104Z,88.38
2022-10-17T20:21:17.168Z,88.77
2022-10-17T20:23:45.648Z,88.25
2022-10-17T20:29:03.857Z,88.22
2022-10-17T20:31:30.594Z,87.81
2022-10-17T20:33:58.900Z,88.09
2022-10-17T20:36:26.375Z,87.71
2022-10-17T20:38:57.339Z,87.68
2022-10-17T20:41:25.417Z,87.72
2022-10-17T20:43:53.350Z,87.94
2022-10-17T20:46:36.459Z,88.27
2022-10-17T20:49:05.811Z,88.25
2022-10-17T20:51:32.776Z,88.70
2022-10-17T20:53:59.489Z,88.34
2022-10-17T20:56:30.413Z,88.16
2022-10-17T20:58:59.855Z,88.28
2022-10-17T21:01:27.562Z,87.87
2022-10-17T21:03:54.410Z,87.73
2022-10-17T21:06:23.221Z,87.84
2022-10-17T21:08:52.312Z,87.42
2022-10-17T21:11:22.447Z,87.27
2022-10-17T21:13:55.664Z,86.73
2022-10-17T21:16:22.552Z,86.50
2022-10-17T21:18:52.728Z,86.78
2022-10-17T21:21:21.845Z,86.86
2022-10-17T21:23:50.401Z,86.74
2022-10-17T21:26:18.907Z,86.80
2022-10-17T21:28:47.004Z,86.80
2022-10-17T21:31:22.374Z,86.78
2022-10-17T21:33:52.391Z,86.42
2022-10-17T21:36:19.863Z,85.88
2022-10-17T21:38:48.729Z,86.33
2022-10-17T21:41:19.572Z,85.66
2022-10-17T21:43:47.029Z,86.00
2022-10-17T21:46:17.418Z,85.77
2022-10-17T21:48:45.373Z,85.70
2022-10-17T21:51:15.107Z,85.52
2022-10-17T21:53:42.822Z,85.90
2022-10-17T21:56:11.715Z,85.85
2022-10-17T21:58:38.331Z,85.22
2022-10-17T22:01:10.592Z,85.24
2022-10-17T22:03:44.090Z,85.44
2022-10-17T22:09:21.244Z,85.82
2022-10-17T22:11:50.639Z,85.85
2022-10-17T22:14:19.724Z,86.24
2022-10-17T22:16:47.803Z,86.22
2022-10-17T22:19:17.487Z,86.22
2022-10-17T22:21:44.636Z,86.14
2022-10-17T22:24:13.670Z,86.50
2022-10-17T22:26:42.306Z,87.10
2022-10-17T22:29:09.699Z,87.86
2022-10-17T22:31:37.412Z,87.99
2022-10-17T22:34:05.712Z,88.20
2022-10-17T22:36:33.403Z,87.25
2022-10-17T22:38:59.992Z,88.30
2022-10-17T22:41:29.628Z,88.41
2022-10-17T22:43:56.369Z,88.66
2022-10-17T22:46:23.132Z,88.98
2022-10-17T22:48:49.832Z,88.89
2022-10-17T22:51:16.502Z,88.95
2022-10-17T22:53:43.198Z,89.46
2022-10-17T22:56:13.673Z,89.82
2022-10-17T22:58:40.403Z,90.15
2022-10-17T23:01:08.595Z,90.21
2022-10-17T23:03:39.076Z,90.07
2022-10-17T23:06:05.811Z,90.25
2022-10-17T23:08:32.563Z,89.91
2022-10-17T23:11:00.621Z,89.51
2022-10-17T23:13:27.253Z,89.06
2022-10-17T23:15:55.612Z,88.25
2022-10-17T23:18:23.849Z,88.83
2022-10-17T23:20:50.808Z,87.67
2022-10-17T23:23:18.747Z,88.41
2022-10-17T23:25:45.660Z,88.76
2022-10-17T23:28:13.035Z,89.51
2022-10-17T23:30:40.302Z,89.57
2022-10-17T23:33:08.656Z,89.75
2022-10-17T23:35:35.595Z,89.56
2022-10-17T23:38:02.540Z,89.83
2022-10-17T23:40:29.704Z,89.38
2022-10-17T23:42:56.351Z,88.95
2022-10-17T23:45:22.971Z,89.28
2022-10-17T23:47:49.695Z,88.80
2022-10-17T23:50:16.561Z,88.39
2022-10-17T23:52:43.284Z,88.00
2022-10-17T23:58:57.033Z,87.26
